Time;durP1;ratioP1;P1;durP2;ratioP2;P2;SDS_P1;SDS_P2;PMS_P1;PMS_P2;Temp;Humidity;BMP_temperature;BMP_pressure;BME280_temperature;BME280_humidity;BME280_pressure;Samples;Min_cycle;Max_cycle;Signal;HPM_P1;HPM_P2
2021/11/09 05:01:58;;;;;;;10.13;8.45;;;8.90;99.90;;;;;;5399714;23;20310;-75
2021/11/09 05:09:56;;;;;;;13.70;8.88;;;8.90;99.90;;;;;;4990851;28;20222;-72
2021/11/09 05:12:23;;;;;;;15.95;9.73;;;8.90;99.90;;;;;;4991609;28;20224;-74
2021/11/09 05:14:49;;;;;;;14.48;8.77;;;8.90;99.90;;;;;;4990569;28;20211;-74
2021/11/09 05:17:17;;;;;;;16.58;8.48;;;8.90;99.90;;;;;;4972570;28;20216;-73
2021/11/09 05:19:44;;;;;;;17.55;8.65;;;8.90;99.90;;;;;;4972213;28;20228;-73
2021/11/09 05:22:11;;;;;;;11.55;8.18;;;8.90;99.90;;;;;;4991362;28;20301;-74
2021/11/09 05:24:42;;;;;;;18.13;9.02;;;8.90;99.90;;;;;;4977787;28;20270;-73
2021/11/09 05:27:10;;;;;;;19.98;8.48;;;8.90;99.90;;;;;;4971940;28;20208;-74
2021/11/09 05:29:37;;;;;;;12.05;7.47;;;8.80;99.90;;;;;;4983720;28;20295;-74
2021/11/09 05:32:04;;;;;;;17.75;8.45;;;8.80;99.90;;;;;;4991150;28;20405;-74
2021/11/09 05:34:32;;;;;;;12.85;8.10;;;8.80;99.90;;;;;;4979930;28;20232;-73
2021/11/09 05:36:59;;;;;;;15.40;8.20;;;8.80;99.90;;;;;;4976585;28;20223;-74
2021/11/09 05:39:32;;;;;;;12.68;8.73;;;8.70;99.90;;;;;;4991154;28;20224;-74
2021/11/09 05:41:59;;;;;;;19.70;9.25;;;8.70;99.90;;;;;;4986348;28;20228;-72
2021/11/09 05:44:26;;;;;;;14.45;9.43;;;8.70;99.90;;;;;;4971051;28;20236;-73
2021/11/09 05:46:53;;;;;;;13.75;9.50;;;8.70;99.90;;;;;;4973418;28;20204;-71
2021/11/09 05:49:20;;;;;;;12.43;8.80;;;8.70;99.90;;;;;;4990827;28;20212;-75
2021/11/09 05:51:48;;;;;;;13.98;9.40;;;8.70;99.90;;;;;;4989048;28;20731;-74
2021/11/09 05:54:14;;;;;;;10.80;8.77;;;8.70;99.90;;;;;;4987010;28;20211;-74
2021/11/09 05:56:41;;;;;;;17.60;9.30;;;8.70;99.90;;;;;;4989887;28;20215;-73
2021/11/09 05:59:08;;;;;;;15.10;9.18;;;8.70;99.90;;;;;;4990989;28;20223;-73
2021/11/09 06:01:34;;;;;;;14.15;9.88;;;8.70;99.90;;;;;;4991514;28;20236;-74
2021/11/09 06:04:01;;;;;;;9.68;7.32;;;8.70;99.90;;;;;;4983189;28;20263;-73
2021/11/09 06:06:28;;;;;;;13.63;8.10;;;8.70;99.90;;;;;;4986136;28;20282;-74
2021/11/09 06:08:56;;;;;;;13.77;8.55;;;8.70;99.90;;;;;;5003001;28;20207;-74
2021/11/09 06:11:22;;;;;;;16.00;8.10;;;8.70;99.90;;;;;;5009297;28;20227;-74
2021/11/09 06:13:49;;;;;;;10.65;6.63;;;8.70;99.90;;;;;;4990278;28;20207;-73
2021/11/09 06:16:16;;;;;;;13.30;7.20;;;8.70;99.90;;;;;;4991194;28;20547;-75
2021/11/09 06:18:43;;;;;;;14.38;8.00;;;8.70;99.90;;;;;;4992500;28;20250;-75
2021/11/09 06:21:10;;;;;;;12.50;6.85;;;8.70;99.90;;;;;;4995181;28;20282;-74
2021/11/09 06:23:37;;;;;;;10.93;6.90;;;8.60;99.90;;;;;;4978208;28;20267;-73
2021/11/09 06:26:05;;;;;;;12.93;6.55;;;8.60;99.90;;;;;;4990843;28;20207;-72
2021/11/09 06:28:32;;;;;;;13.13;6.47;;;8.60;99.90;;;;;;4995005;28;20306;-73
2021/11/09 06:30:59;;;;;;;12.55;6.20;;;8.50;99.90;;;;;;4993961;28;20322;-73
2021/11/09 06:33:26;;;;;;;12.23;6.25;;;8.50;99.90;;;;;;4993655;28;20238;-71
2021/11/09 06:35:53;;;;;;;12.27;7.30;;;8.60;99.90;;;;;;4994036;28;20307;-74
2021/11/09 06:38:20;;;;;;;9.57;8.00;;;8.60;99.90;;;;;;4980449;28;20241;-72
2021/11/09 06:40:47;;;;;;;7.88;6.90;;;8.60;99.90;;;;;;4973770;28;20653;-73
2021/11/09 06:43:15;;;;;;;11.10;6.88;;;8.60;99.90;;;;;;4975833;28;20209;-73
2021/11/09 06:45:43;;;;;;;13.43;7.47;;;8.60;99.90;;;;;;4975549;28;20256;-73
2021/11/09 06:48:10;;;;;;;8.70;6.55;;;8.60;99.90;;;;;;4988644;28;20204;-72
2021/11/09 06:50:37;;;;;;;11.32;7.25;;;8.60;99.90;;;;;;4991876;28;20216;-72
2021/11/09 06:53:04;;;;;;;6.97;6.35;;;8.70;99.90;;;;;;4990583;28;20224;-71
2021/11/09 06:55:34;;;;;;;8.15;6.32;;;8.70;99.90;;;;;;4978854;28;20223;-73
2021/11/09 06:58:01;;;;;;;8.23;6.28;;;8.70;99.90;;;;;;4993414;28;20231;-74
2021/11/09 07:00:29;;;;;;;9.35;5.43;;;8.70;99.90;;;;;;4991054;28;20301;-75
2021/11/09 07:02:55;;;;;;;6.55;5.20;;;8.70;99.90;;;;;;4990271;28;20258;-74
2021/11/09 07:05:22;;;;;;;9.52;5.82;;;8.70;99.90;;;;;;4990029;28;20249;-74
2021/11/09 07:07:49;;;;;;;7.00;4.88;;;8.70;99.90;;;;;;4982776;28;20292;-74
2021/11/09 07:10:17;;;;;;;10.20;5.07;;;8.80;99.90;;;;;;4992754;28;20211;-74
2021/11/09 07:12:44;;;;;;;4.30;3.83;;;8.80;99.90;;;;;;5011448;28;20203;-74
2021/11/09 07:15:12;;;;;;;5.13;3.90;;;8.80;99.90;;;;;;5012880;28;20794;-73
2021/11/09 07:17:40;;;;;;;4.78;3.78;;;8.80;99.90;;;;;;4998441;28;20299;-72
2021/11/09 07:20:08;;;;;;;6.63;3.85;;;8.80;99.90;;;;;;4993410;28;20682;-71
2021/11/09 07:22:35;;;;;;;4.22;3.80;;;8.90;99.90;;;;;;4980627;28;20303;-73
2021/11/09 07:25:02;;;;;;;3.33;3.05;;;8.90;99.90;;;;;;4973674;28;20212;-72
2021/11/09 07:27:29;;;;;;;6.88;4.00;;;8.90;99.90;;;;;;4985804;28;20548;-74
2021/11/09 07:29:56;;;;;;;3.35;3.15;;;9.00;99.90;;;;;;4992733;28;20231;-73
2021/11/09 07:32:24;;;;;;;11.23;4.13;;;9.00;99.90;;;;;;4982897;28;20320;-72
2021/11/09 07:34:53;;;;;;;7.35;3.22;;;9.00;99.90;;;;;;4983030;28;20624;-72
2021/11/09 07:37:20;;;;;;;3.15;3.00;;;9.00;99.90;;;;;;5005868;28;20234;-71
2021/11/09 07:39:47;;;;;;;6.20;3.80;;;9.00;99.90;;;;;;5012430;28;20330;-72
2021/11/09 07:42:14;;;;;;;3.85;3.17;;;9.00;99.90;;;;;;4992222;28;20762;-72
2021/11/09 07:44:41;;;;;;;7.20;3.40;;;9.00;99.90;;;;;;4989895;28;20716;-73
2021/11/09 07:47:08;;;;;;;3.83;3.30;;;9.00;99.90;;;;;;4987944;28;20211;-73
2021/11/09 07:49:35;;;;;;;3.70;3.40;;;8.90;99.90;;;;;;5005005;28;20226;-71
2021/11/09 07:52:04;;;;;;;6.88;3.83;;;9.00;99.90;;;;;;4997595;28;20235;-71
2021/11/09 07:54:34;;;;;;;5.22;4.00;;;8.90;99.90;;;;;;4993534;28;20299;-73
2021/11/09 07:57:02;;;;;;;7.35;4.07;;;8.90;99.90;;;;;;4977023;28;20631;-73
2021/11/09 07:59:33;;;;;;;9.50;3.53;;;8.90;99.90;;;;;;4975124;28;20220;-72
2021/11/09 08:02:02;;;;;;;4.38;3.80;;;8.80;99.90;;;;;;4978655;28;20258;-72
2021/11/09 08:04:34;;;;;;;5.70;3.80;;;8.80;99.90;;;;;;4985531;28;20310;-72
2021/11/09 08:07:07;;;;;;;7.05;5.13;;;8.80;99.90;;;;;;4979737;28;20262;-73
2021/11/09 08:09:35;;;;;;;9.20;5.72;;;8.80;99.90;;;;;;4974724;28;20208;-72
2021/11/09 08:12:04;;;;;;;6.97;4.90;;;8.80;99.90;;;;;;4974420;28;20312;-72
2021/11/09 08:14:32;;;;;;;6.32;4.70;;;8.80;99.90;;;;;;4991582;28;20212;-72
2021/11/09 08:17:00;;;;;;;7.95;5.57;;;8.80;99.90;;;;;;4990112;28;20215;-72
2021/11/09 08:19:27;;;;;;;10.90;5.80;;;8.70;99.90;;;;;;4989021;28;20250;-72
2021/11/09 08:21:54;;;;;;;8.77;6.07;;;8.70;99.90;;;;;;4982831;28;20230;-72
2021/11/09 08:24:24;;;;;;;6.57;5.85;;;8.80;99.90;;;;;;4987955;28;20211;-72
2021/11/09 08:26:51;;;;;;;9.55;6.18;;;8.90;99.90;;;;;;4990646;28;20200;-72
2021/11/09 08:29:20;;;;;;;7.00;6.30;;;9.10;99.90;;;;;;4989702;28;20204;-72
2021/11/09 08:31:47;;;;;;;7.68;6.75;;;9.30;99.90;;;;;;4974484;28;20220;-72
2021/11/09 08:34:15;;;;;;;10.30;6.95;;;9.40;99.90;;;;;;4983948;28;20204;-73
2021/11/09 08:36:44;;;;;;;10.57;7.60;;;9.40;99.90;;;;;;4991776;28;20207;-73
2021/11/09 08:39:13;;;;;;;9.15;6.20;;;9.40;99.90;;;;;;4987395;28;20294;-71
2021/11/09 08:41:44;;;;;;;8.38;5.88;;;9.30;99.90;;;;;;4982133;28;20282;-73
2021/11/09 08:44:12;;;;;;;7.88;5.72;;;9.30;99.90;;;;;;4988775;28;20206;-74
2021/11/09 08:46:42;;;;;;;12.63;5.85;;;9.30;99.90;;;;;;4992142;28;20304;-73
2021/11/09 08:49:12;;;;;;;8.85;5.80;;;9.40;99.90;;;;;;4992216;28;20648;-72
2021/11/09 08:51:40;;;;;;;9.70;6.30;;;9.40;99.90;;;;;;4991487;28;20872;-74
2021/11/09 08:54:13;;;;;;;11.52;7.65;;;9.40;99.90;;;;;;4991675;28;20213;-74
2021/11/09 09:05:11;;;;;;;15.25;7.80;;;9.60;99.90;;;;;;4989075;28;20683;-74
2021/11/09 09:07:38;;;;;;;11.55;8.05;;;9.60;99.90;;;;;;4990934;28;20399;-72
2021/11/09 09:10:07;;;;;;;14.43;7.32;;;9.70;99.90;;;;;;4991130;28;20270;-74
2021/11/09 09:12:36;;;;;;;16.50;8.05;;;9.70;99.90;;;;;;4991362;28;20258;-72
2021/11/09 09:15:05;;;;;;;17.30;9.00;;;9.70;99.90;;;;;;4990856;28;20314;-73
2021/11/09 09:17:34;;;;;;;17.30;10.02;;;9.80;99.90;;;;;;4991435;28;20581;-73
2021/11/09 09:20:07;;;;;;;13.40;9.52;;;9.80;99.90;;;;;;4990856;28;20228;-74
2021/11/09 09:22:38;;;;;;;20.80;10.07;;;9.80;99.90;;;;;;4991276;28;20232;-73
2021/11/09 09:25:17;;;;;;;20.40;12.20;;;9.90;99.90;;;;;;4990708;28;20223;-73
2021/11/09 09:28:20;;;;;;;18.08;11.35;;;10.00;99.90;;;;;;4990980;28;20700;-74
2021/11/09 09:53:07;;;;;;;21.00;12.43;;;10.40;99.90;;;;;;5109024;28;20636;-72
2021/11/09 09:55:39;;;;;;;21.35;13.02;;;10.40;99.90;;;;;;5126752;28;20534;-73
2021/11/09 09:58:07;;;;;;;25.70;13.15;;;10.40;99.90;;;;;;5127780;27;20218;-73
2021/11/09 10:00:35;;;;;;;18.77;11.15;;;10.50;99.90;;;;;;5122454;27;20719;-73
2021/11/09 10:03:02;;;;;;;22.08;13.30;;;10.50;99.90;;;;;;5127490;27;20206;-73
2021/11/09 10:05:34;;;;;;;19.10;12.10;;;10.50;99.90;;;;;;5127616;27;20210;-71
2021/11/09 10:08:10;;;;;;;21.83;12.25;;;10.50;99.90;;;;;;5126879;27;20230;-72
2021/11/09 10:10:37;;;;;;;18.13;11.60;;;10.60;99.90;;;;;;5127417;27;20261;-73
2021/11/09 10:13:08;;;;;;;14.10;9.85;;;10.60;99.90;;;;;;5127719;27;20695;-73
2021/11/09 10:15:37;;;;;;;17.70;10.93;;;10.60;99.90;;;;;;5127003;27;20203;-73
2021/11/09 10:18:05;;;;;;;15.88;9.48;;;10.70;99.90;;;;;;5127953;27;20215;-73
2021/11/09 10:20:36;;;;;;;13.77;9.15;;;10.70;99.90;;;;;;5128000;27;20310;-74
2021/11/09 10:23:05;;;;;;;23.65;10.38;;;10.80;99.90;;;;;;5126418;27;20550;-74
2021/11/09 10:25:34;;;;;;;15.40;9.95;;;10.80;99.90;;;;;;5120569;27;20624;-74
2021/11/09 10:28:04;;;;;;;16.10;9.15;;;10.90;99.90;;;;;;5127459;27;20722;-74
2021/11/09 10:30:34;;;;;;;13.93;8.35;;;10.90;99.90;;;;;;5127147;27;20225;-73
2021/11/09 10:33:01;;;;;;;15.20;8.60;;;11.00;99.90;;;;;;5127663;27;20227;-74
2021/11/09 10:35:28;;;;;;;11.45;7.30;;;11.00;99.90;;;;;;5127291;27;20737;-72
2021/11/09 10:37:58;;;;;;;15.48;8.50;;;11.10;99.90;;;;;;5127412;27;20203;-72
2021/11/09 10:40:28;;;;;;;12.18;7.53;;;11.10;99.90;;;;;;5125906;27;20195;-74
2021/11/09 10:42:57;;;;;;;14.73;7.25;;;11.10;99.90;;;;;;5126137;27;20538;-74
2021/11/09 10:45:26;;;;;;;10.15;8.07;;;11.20;99.90;;;;;;5112797;28;20200;-73
2021/11/09 10:47:54;;;;;;;8.00;6.82;;;11.20;99.90;;;;;;5113243;28;20208;-73
2021/11/09 10:50:23;;;;;;;11.10;7.20;;;11.20;99.90;;;;;;5113323;28;20226;-73
2021/11/09 10:53:02;;;;;;;9.85;6.70;;;11.30;99.90;;;;;;5113883;27;20251;-73
2021/11/09 10:55:34;;;;;;;10.77;7.40;;;11.30;99.90;;;;;;5111944;28;20333;-73
2021/11/09 10:58:18;;;;;;;9.70;6.95;;;11.40;99.90;;;;;;5113202;28;20204;-73
2021/11/09 11:03:15;;;;;;;14.45;7.20;;;11.40;99.90;;;;;;5112497;28;20223;-73
2021/11/09 11:06:33;;;;;;;7.18;6.45;;;11.50;99.90;;;;;;5112807;28;20205;-73
2021/11/09 11:09:17;;;;;;;7.20;6.13;;;11.50;99.90;;;;;;5112904;28;20204;-73
2021/11/09 11:11:45;;;;;;;12.68;6.47;;;11.60;99.90;;;;;;5111675;28;20226;-71
2021/11/09 11:14:15;;;;;;;12.82;6.90;;;11.60;99.90;;;;;;5107786;28;20215;-70
2021/11/09 11:16:43;;;;;;;8.98;5.88;;;11.60;99.90;;;;;;5112941;28;20245;-72
2021/11/09 11:19:10;;;;;;;7.65;6.35;;;11.60;99.90;;;;;;5112580;28;20268;-72
2021/11/09 11:21:37;;;;;;;9.10;5.78;;;11.60;99.90;;;;;;5112976;28;20543;-71
2021/11/09 11:24:08;;;;;;;5.95;5.35;;;11.70;99.90;;;;;;5112683;28;20204;-72
2021/11/09 11:26:36;;;;;;;8.80;5.60;;;11.70;99.90;;;;;;5111583;28;20233;-72
2021/11/09 11:29:04;;;;;;;17.73;6.40;;;11.70;99.90;;;;;;5091801;28;20580;-71
2021/11/09 11:31:31;;;;;;;7.10;4.93;;;11.70;99.90;;;;;;5092169;28;20240;-71
2021/11/09 11:33:58;;;;;;;7.28;5.97;;;11.80;99.90;;;;;;5091972;28;20220;-72
2021/11/09 11:36:25;;;;;;;9.38;6.15;;;11.80;99.90;;;;;;5092160;28;20209;-71
2021/11/09 11:38:55;;;;;;;12.60;5.78;;;11.80;99.90;;;;;;5091770;28;20216;-72
2021/11/09 11:41:24;;;;;;;7.03;5.70;;;11.90;99.90;;;;;;5091742;28;20231;-71
2021/11/09 11:43:53;;;;;;;11.30;6.03;;;11.90;99.90;;;;;;5092339;28;20883;-72
2021/11/09 11:46:49;;;;;;;12.63;5.93;;;11.90;99.90;;;;;;5097178;28;20227;-72
2021/11/09 11:49:20;;;;;;;6.10;5.45;;;11.90;99.90;;;;;;5103132;28;20573;-71
2021/11/09 11:52:18;;;;;;;9.60;5.75;;;12.00;99.90;;;;;;5099993;28;20304;-72
2021/11/09 11:54:59;;;;;;;6.75;5.10;;;11.90;99.90;;;;;;5098976;28;20197;-72
2021/11/09 11:57:32;;;;;;;8.13;5.63;;;11.90;99.90;;;;;;5091634;28;20215;-72
2021/11/09 12:00:00;;;;;;;9.43;5.07;;;11.90;99.90;;;;;;5091132;28;20214;-72
2021/11/09 12:02:36;;;;;;;8.13;4.63;;;12.00;99.90;;;;;;5091946;28;20220;-72
2021/11/09 12:05:04;;;;;;;6.45;5.05;;;12.00;99.90;;;;;;5091566;28;20668;-72
2021/11/09 12:07:50;;;;;;;9.73;6.20;;;12.00;99.90;;;;;;5094447;28;20629;-71
2021/11/09 12:10:17;;;;;;;7.50;5.28;;;12.10;99.90;;;;;;5105980;28;20565;-71
2021/11/09 12:13:00;;;;;;;13.85;5.15;;;12.10;99.90;;;;;;5091227;28;20228;-72
2021/11/09 12:15:44;;;;;;;6.97;5.43;;;12.10;99.90;;;;;;5090996;28;20208;-71
2021/11/09 12:18:44;;;;;;;10.77;5.60;;;12.10;99.90;;;;;;5091363;28;20290;-71
2021/11/09 12:21:38;;;;;;;6.13;5.28;;;12.10;99.90;;;;;;5091578;28;20482;-73
2021/11/09 12:24:12;;;;;;;8.25;7.38;;;12.10;99.90;;;;;;5088442;28;20211;-71
2021/11/09 12:26:39;;;;;;;9.27;6.38;;;12.10;99.90;;;;;;5111382;28;20307;-72
2021/11/09 12:29:41;;;;;;;6.22;5.65;;;12.10;99.90;;;;;;5110814;28;20207;-72
2021/11/09 12:32:28;;;;;;;6.25;5.60;;;12.10;99.90;;;;;;5112067;28;20287;-73
2021/11/09 12:35:03;;;;;;;12.27;4.90;;;12.20;99.90;;;;;;5112668;27;20746;-72
2021/11/09 12:37:31;;;;;;;6.33;4.83;;;12.20;99.90;;;;;;5113912;28;20487;-73
2021/11/09 12:40:27;;;;;;;11.25;7.15;;;12.30;99.90;;;;;;5114173;28;20575;-71
2021/11/09 12:43:14;;;;;;;10.73;5.80;;;12.30;99.90;;;;;;5109549;28;20192;-74
2021/11/09 12:45:46;;;;;;;11.10;5.63;;;12.30;99.90;;;;;;5108484;28;20949;-70
2021/11/09 12:48:15;;;;;;;5.13;4.63;;;12.30;99.90;;;;;;5116936;28;20530;-71
2021/11/09 12:50:53;;;;;;;8.20;5.17;;;12.30;99.90;;;;;;5117713;28;20470;-73
2021/11/09 12:53:22;;;;;;;9.93;4.75;;;12.30;99.90;;;;;;5117474;28;20526;-72
2021/11/09 12:55:57;;;;;;;4.80;4.40;;;12.30;99.90;;;;;;5116383;28;20271;-70
2021/11/09 12:58:26;;;;;;;11.40;5.93;;;12.30;99.90;;;;;;5117572;28;20207;-72
2021/11/09 13:01:17;;;;;;;5.65;3.60;;;12.30;99.90;;;;;;5116893;28;20332;-72
2021/11/09 13:03:57;;;;;;;4.43;4.13;;;12.30;99.90;;;;;;5118148;28;20203;-72
2021/11/09 13:06:39;;;;;;;7.57;5.13;;;12.30;99.90;;;;;;5116838;28;20453;-72
2021/11/09 13:09:12;;;;;;;4.78;4.47;;;12.30;99.90;;;;;;5113966;28;20209;-72
2021/11/09 13:11:43;;;;;;;5.97;4.03;;;12.30;99.90;;;;;;5099307;28;20362;-72
2021/11/09 13:14:11;;;;;;;9.65;4.97;;;12.30;99.90;;;;;;5100391;28;20485;-71
2021/11/09 13:16:43;;;;;;;7.80;4.18;;;12.30;99.90;;;;;;5096945;28;20209;-72
2021/11/09 13:19:10;;;;;;;9.45;4.20;;;12.30;99.90;;;;;;5107807;28;20561;-71
2021/11/09 13:21:40;;;;;;;4.70;3.63;;;12.40;99.90;;;;;;5108306;28;20231;-71
2021/11/09 13:24:08;;;;;;;3.58;3.28;;;12.30;99.90;;;;;;5106280;28;20261;-71
2021/11/09 13:26:35;;;;;;;3.95;3.00;;;12.30;99.90;;;;;;5092727;28;20243;-71
2021/11/09 13:29:07;;;;;;;4.53;3.27;;;12.30;99.90;;;;;;5106060;28;20681;-71
2021/11/09 13:31:35;;;;;;;5.68;3.45;;;12.30;99.90;;;;;;5089047;28;20493;-71
2021/11/09 13:34:04;;;;;;;3.80;3.50;;;12.30;99.90;;;;;;5089641;28;20303;-71
2021/11/09 13:36:31;;;;;;;4.97;3.20;;;12.30;99.90;;;;;;5099740;28;20462;-72
2021/11/09 13:38:58;;;;;;;5.67;3.30;;;12.30;99.90;;;;;;5102848;28;20239;-69
2021/11/09 13:41:33;;;;;;;5.10;3.20;;;12.30;99.90;;;;;;5093519;28;20873;-68
2021/11/09 13:44:06;;;;;;;4.95;3.10;;;12.30;99.90;;;;;;5092198;28;20227;-69
2021/11/09 13:46:35;;;;;;;5.93;3.83;;;12.20;99.90;;;;;;5098812;28;20200;-69
2021/11/09 13:49:06;;;;;;;3.33;3.00;;;12.20;99.90;;;;;;5089348;28;20584;-69
2021/11/09 13:51:39;;;;;;;3.67;3.20;;;12.20;99.90;;;;;;5090494;28;20261;-72
2021/11/09 13:54:14;;;;;;;6.75;4.25;;;12.20;99.90;;;;;;5090046;28;20220;-69
2021/11/09 13:56:44;;;;;;;5.40;4.00;;;12.20;99.90;;;;;;5089973;28;20241;-69
2021/11/09 13:59:12;;;;;;;4.63;4.22;;;12.10;99.90;;;;;;5096170;28;20291;-69
2021/11/09 14:01:44;;;;;;;4.60;3.25;;;12.10;99.90;;;;;;5109243;28;20588;-69
2021/11/09 14:12:57;;;;;;;3.85;3.60;;;12.10;99.90;;;;;;5101085;28;20357;-69
2021/11/09 14:15:43;;;;;;;3.20;3.00;;;12.00;99.90;;;;;;5100617;28;20209;-68
2021/11/09 14:18:14;;;;;;;4.00;3.83;;;12.00;99.90;;;;;;5089176;28;20573;-69
2021/11/09 14:20:52;;;;;;;4.57;4.00;;;11.90;99.90;;;;;;5095019;28;20668;-69
2021/11/09 14:23:29;;;;;;;4.03;3.70;;;11.90;99.90;;;;;;5098152;28;20207;-69
2021/11/09 14:25:56;;;;;;;5.60;2.90;;;11.90;99.90;;;;;;5093968;28;20488;-69
2021/11/09 14:28:34;;;;;;;6.35;4.45;;;11.90;99.90;;;;;;5092671;28;20287;-70
2021/11/09 14:31:12;;;;;;;6.10;3.67;;;11.80;99.90;;;;;;5107551;28;20226;-70
2021/11/09 14:33:39;;;;;;;3.60;3.30;;;11.80;99.90;;;;;;5113531;28;20239;-70
2021/11/09 14:39:15;;;;;;;5.30;3.50;;;11.80;99.90;;;;;;5079498;27;20559;-69
2021/11/09 14:42:03;;;;;;;7.38;3.67;;;11.70;99.90;;;;;;5081155;28;20303;-69
2021/11/09 14:44:31;;;;;;;3.88;3.50;;;11.70;99.90;;;;;;5069843;28;20236;-69
2021/11/09 14:46:58;;;;;;;5.30;3.85;;;11.60;99.90;;;;;;5073396;28;20280;-69
2021/11/09 14:49:38;;;;;;;3.65;3.30;;;11.60;99.90;;;;;;5084120;28;20196;-69
2021/11/09 14:52:08;;;;;;;5.68;3.60;;;11.60;99.90;;;;;;5071793;28;20227;-69
2021/11/09 14:54:37;;;;;;;3.80;3.60;;;11.50;99.90;;;;;;5079857;28;20205;-69
2021/11/09 14:57:07;;;;;;;4.57;3.40;;;11.50;99.90;;;;;;5086672;28;20220;-69
2021/11/09 14:59:34;;;;;;;4.45;4.05;;;11.50;99.90;;;;;;5084649;28;20208;-69
2021/11/09 15:02:02;;;;;;;3.90;3.70;;;11.50;99.90;;;;;;5085837;28;20365;-69
2021/11/09 15:04:37;;;;;;;5.20;3.70;;;11.40;99.90;;;;;;5072944;28;20316;-71
2021/11/09 15:07:13;;;;;;;3.65;3.38;;;11.40;99.90;;;;;;5083964;28;20228;-69
2021/11/09 15:10:00;;;;;;;4.03;3.72;;;11.40;99.90;;;;;;5076756;28;20197;-69
2021/11/09 15:12:36;;;;;;;4.97;4.15;;;11.30;99.90;;;;;;5066798;28;20235;-69
2021/11/09 15:26:11;;;;;;;4.72;4.07;;;11.10;99.90;;;;;;5065898;28;20609;-69
2021/11/09 15:28:47;;;;;;;6.70;3.95;;;11.00;99.90;;;;;;5080454;28;20539;-69
2021/11/09 15:31:21;;;;;;;4.90;3.97;;;11.00;99.90;;;;;;5082603;28;20216;-69
2021/11/09 15:33:50;;;;;;;4.18;3.90;;;11.00;99.90;;;;;;5080852;28;20311;-68
2021/11/09 15:36:31;;;;;;;4.43;3.85;;;11.00;99.90;;;;;;5078783;28;20525;-69
2021/11/09 15:38:58;;;;;;;5.45;3.92;;;10.90;99.90;;;;;;5065087;28;20224;-69
2021/11/09 15:41:26;;;;;;;3.65;3.45;;;10.80;99.90;;;;;;5070853;28;20228;-69
2021/11/09 15:43:53;;;;;;;5.03;3.45;;;10.80;99.90;;;;;;5083526;28;20197;-68
2021/11/09 15:46:19;;;;;;;4.13;3.75;;;10.70;99.90;;;;;;5066436;28;20213;-69
2021/11/09 15:48:46;;;;;;;3.70;3.40;;;10.70;99.90;;;;;;5067314;28;20222;-69
2021/11/09 15:51:19;;;;;;;3.92;3.63;;;10.60;99.90;;;;;;5052276;28;20252;-69
2021/11/09 15:53:46;;;;;;;4.57;3.70;;;10.60;99.90;;;;;;5060683;28;20209;-69
2021/11/09 15:56:13;;;;;;;3.90;3.60;;;10.50;99.90;;;;;;5065425;28;20205;-69
2021/11/09 15:58:41;;;;;;;5.18;3.83;;;10.50;99.90;;;;;;5065335;28;20221;-69
2021/11/09 16:01:08;;;;;;;4.32;3.92;;;10.50;99.90;;;;;;5071819;28;20225;-69
2021/11/09 16:03:37;;;;;;;5.45;4.30;;;10.40;99.90;;;;;;5063016;28;20663;-69
2021/11/09 16:06:06;;;;;;;5.95;5.55;;;10.40;99.90;;;;;;5060784;28;20214;-69
2021/11/09 16:08:35;;;;;;;4.15;3.85;;;10.30;99.90;;;;;;5053499;28;20289;-70
2021/11/09 16:11:03;;;;;;;4.53;4.22;;;10.20;99.90;;;;;;5056468;28;20240;-70
2021/11/09 16:13:30;;;;;;;6.25;5.43;;;10.10;99.90;;;;;;5059924;28;20578;-70
2021/11/09 16:15:58;;;;;;;5.53;5.07;;;10.10;99.90;;;;;;5069994;28;20205;-70
2021/11/09 16:18:25;;;;;;;7.80;5.80;;;10.00;99.90;;;;;;5064533;28;20222;-70
2021/11/09 16:20:52;;;;;;;5.13;4.72;;;9.90;99.90;;;;;;5067695;28;20221;-70
2021/11/09 16:23:19;;;;;;;7.80;5.60;;;9.80;99.90;;;;;;5064639;28;20670;-70
2021/11/09 16:25:46;;;;;;;4.38;4.07;;;9.80;99.90;;;;;;5051463;28;20295;-70
2021/11/09 16:28:13;;;;;;;6.22;5.05;;;9.80;99.90;;;;;;5052458;28;20206;-71
2021/11/09 16:30:40;;;;;;;8.75;4.70;;;9.80;99.90;;;;;;5051282;28;20246;-72
2021/11/09 16:33:14;;;;;;;5.03;4.72;;;9.70;99.90;;;;;;5052079;28;20209;-70
2021/11/09 16:35:45;;;;;;;5.93;5.25;;;9.60;99.90;;;;;;5051767;28;20300;-70
2021/11/09 16:38:14;;;;;;;5.90;5.00;;;9.60;99.90;;;;;;5059689;28;20315;-71
2021/11/09 16:40:43;;;;;;;6.03;5.03;;;9.60;99.90;;;;;;5071313;28;20248;-71
2021/11/09 16:43:11;;;;;;;5.78;5.22;;;9.60;99.90;;;;;;5061206;28;20213;-70
2021/11/09 16:45:45;;;;;;;6.13;5.10;;;9.60;99.90;;;;;;5070686;28;20198;-70
2021/11/09 16:48:14;;;;;;;7.93;6.25;;;9.50;99.90;;;;;;5062954;28;20314;-70
2021/11/09 16:50:59;;;;;;;5.65;5.15;;;9.40;99.90;;;;;;5063487;28;20228;-70
2021/11/09 16:53:27;;;;;;;8.13;6.70;;;9.30;99.90;;;;;;5051963;28;20279;-70
2021/11/09 16:59:10;;;;;;;12.45;6.38;;;9.20;99.90;;;;;;5060788;28;20236;-70
2021/11/09 17:10:28;;;;;;;13.00;7.43;;;9.00;99.90;;;;;;5057661;28;20280;-70
2021/11/09 18:21:35;;;;;;;10.18;6.78;;;8.60;99.90;;;;;;5061167;28;20224;-71
2021/11/09 18:24:01;;;;;;;9.32;7.40;;;8.50;99.90;;;;;;5067114;28;20215;-71
2021/11/09 18:26:29;;;;;;;13.15;7.45;;;8.50;99.90;;;;;;5061705;28;20209;-71
2021/11/09 18:28:56;;;;;;;10.13;8.05;;;8.50;99.90;;;;;;5062166;28;20577;-72
2021/11/09 18:31:24;;;;;;;11.73;7.70;;;8.50;99.90;;;;;;5060545;28;20224;-72
2021/11/09 18:33:51;;;;;;;8.55;7.63;;;8.40;99.90;;;;;;5065637;28;20209;-72
2021/11/09 18:36:18;;;;;;;11.95;7.78;;;8.40;99.90;;;;;;5049930;28;20212;-72
2021/11/09 18:38:45;;;;;;;9.73;7.75;;;8.40;99.90;;;;;;5049363;28;20222;-72
2021/11/09 18:41:12;;;;;;;18.20;8.85;;;8.40;99.90;;;;;;5055885;28;20220;-72
2021/11/09 18:43:42;;;;;;;10.63;7.28;;;8.40;99.90;;;;;;5056632;28;20604;-72
2021/11/09 18:46:12;;;;;;;9.60;6.93;;;8.30;99.90;;;;;;5064739;28;20741;-72
2021/11/09 18:48:40;;;;;;;10.65;7.32;;;8.30;99.90;;;;;;5061998;28;20193;-72
2021/11/09 18:51:07;;;;;;;12.05;7.40;;;8.30;99.90;;;;;;5061776;28;20221;-72
2021/11/09 18:53:34;;;;;;;9.60;8.07;;;8.30;99.90;;;;;;5066598;28;20224;-72
2021/11/09 18:56:01;;;;;;;10.77;7.95;;;8.20;99.90;;;;;;5049897;28;20650;-72
2021/11/09 18:58:27;;;;;;;8.73;7.65;;;8.20;99.90;;;;;;5060399;28;20237;-72
2021/11/09 19:00:57;;;;;;;8.95;8.05;;;8.10;99.90;;;;;;5062837;28;20231;-72
2021/11/09 19:03:23;;;;;;;11.35;8.82;;;8.10;99.90;;;;;;5046532;28;20260;-70
2021/11/09 19:05:50;;;;;;;10.65;8.18;;;8.10;99.90;;;;;;5057118;28;20202;-72
2021/11/09 19:08:17;;;;;;;14.95;8.52;;;8.00;99.90;;;;;;5050188;28;20201;-71
2021/11/09 19:10:43;;;;;;;12.80;8.70;;;8.00;99.90;;;;;;5065491;28;20225;-75
2021/11/09 19:13:10;;;;;;;11.50;9.10;;;7.90;99.90;;;;;;5052272;28;20229;-75
2021/11/09 19:15:37;;;;;;;11.30;8.90;;;7.90;99.90;;;;;;5055870;28;20212;-72
2021/11/09 19:18:05;;;;;;;13.63;10.85;;;7.80;99.90;;;;;;5052585;28;20221;-72
2021/11/09 19:20:32;;;;;;;13.75;10.45;;;7.80;99.90;;;;;;5056381;28;20205;-71
2021/11/09 19:22:59;;;;;;;13.35;10.02;;;7.70;99.90;;;;;;5061348;28;20229;-72
2021/11/09 19:25:27;;;;;;;10.98;9.10;;;7.70;99.90;;;;;;5069715;28;20205;-71
2021/11/09 19:27:54;;;;;;;15.00;10.20;;;7.60;99.90;;;;;;5070430;28;20589;-71
2021/11/09 19:30:24;;;;;;;11.60;9.98;;;7.60;99.90;;;;;;5053945;28;20672;-71
2021/11/09 19:32:51;;;;;;;15.85;10.75;;;7.50;99.90;;;;;;5067158;28;20206;-70
2021/11/09 19:35:19;;;;;;;13.18;9.70;;;7.50;99.90;;;;;;5060995;28;20289;-71
2021/11/09 19:37:47;;;;;;;11.50;10.32;;;7.40;99.90;;;;;;5066749;28;20217;-71
2021/11/09 19:40:14;;;;;;;12.73;9.80;;;7.40;99.90;;;;;;5066908;28;20654;-71
2021/11/09 19:42:44;;;;;;;13.52;10.65;;;7.40;99.90;;;;;;5060841;28;20237;-71
2021/11/09 19:45:15;;;;;;;15.68;10.85;;;7.30;99.90;;;;;;5066072;28;20213;-71
2021/11/09 19:47:46;;;;;;;13.82;11.25;;;7.30;99.90;;;;;;5066758;28;20227;-71
2021/11/09 19:50:17;;;;;;;15.57;11.80;;;7.20;99.90;;;;;;5072565;28;20208;-71
2021/11/09 19:52:51;;;;;;;13.68;11.18;;;7.20;99.90;;;;;;5063727;28;20197;-70
2021/11/09 19:55:19;;;;;;;12.40;11.07;;;7.20;99.90;;;;;;5053080;28;20216;-71
2021/11/09 19:57:46;;;;;;;13.60;11.02;;;7.10;99.90;;;;;;5068504;28;20684;-70
2021/11/09 20:00:15;;;;;;;16.42;11.05;;;7.10;99.90;;;;;;5071807;28;20765;-70
2021/11/09 20:02:44;;;;;;;14.88;11.48;;;7.10;99.90;;;;;;5072494;28;20594;-71
2021/11/09 20:05:11;;;;;;;19.58;14.77;;;7.10;99.90;;;;;;5072288;28;20207;-70
2021/11/09 20:07:39;;;;;;;16.48;11.20;;;7.10;99.90;;;;;;5072592;28;20241;-71
2021/11/09 20:10:08;;;;;;;16.83;12.18;;;7.00;99.90;;;;;;5071984;28;20563;-72
2021/11/09 20:12:35;;;;;;;18.73;11.70;;;7.00;99.90;;;;;;5056965;28;20721;-71
2021/11/09 20:15:07;;;;;;;16.80;11.73;;;7.00;99.90;;;;;;5052524;28;20206;-72
2021/11/09 20:17:33;;;;;;;18.02;10.63;;;7.00;99.90;;;;;;5053327;28;20193;-72
2021/11/09 20:20:00;;;;;;;13.25;11.57;;;6.90;99.90;;;;;;5052516;28;20234;-72
2021/11/09 20:22:28;;;;;;;14.13;10.60;;;6.90;99.90;;;;;;5063432;28;20225;-70
2021/11/09 20:24:54;;;;;;;18.60;12.57;;;6.90;99.90;;;;;;5052569;28;20225;-71